FLIGHT INFORMATION
Norwegian Air Shuttle

NAX260

At Arrival Gate

LOWI
 LGSA
DATE: 2019-11-23
GATE:  -
GATE DEPARTURE: 10:58
TAKEOFF: 11:10
DATE: 2019-11-23
GATE:  -
LANDING: 13:26
GATE ARRIVAL: 13:30
FLIGHT DATA
Crew: CHRIS MAKRIS
Speed: 469 kts Altitude: 35000 ft
Stage Length: 908 nm
Route: 
Block Time: 2.5 Flight Time: 2.3
Fuel Used: 13794 LB
TRACK DATA
50000 FT1000 KTAltitudeSpeed
AIRCRAFT INFORMATION
Aircraft Type: B738BW
Registration: SE-RRC
SELCAL:  MSN/LN: 40869 / 3651
Operator: NORWEGIAN AIR SHUTTLE
Flights: 13 Block Time: 34.3 Flight Time: 31.9
Fuel Used: 188251 LB
  • DEPARTURE INFORMATION
    Date: 2019-11-23
    Airport: LOWI
    Gate:  -
    Gate Departure: 10:58
    Takeoff: 11:10
    ARRIVAL INFORMATION
    Date: 2019-11-23
    Airport: LGSA
    Gate:  -
    Landing: 13:26
    Gate Arrival: 13:30
  • FLIGHT DATA
    Crew: CHRIS MAKRIS
    Speed: 469 kts Altitude: 35000 ft
    Stage Length: 490 nm
    Route: 
    Block Time: 2.5 Flight Time: 2.3
    Fuel Used: 13794 LB
  • AIRCRAFT INFORMATION
    Aircraft Type: B738BW
    Registration: SE-RRC
    SELCAL:  MSN/LN: 40869 / 3651
    Operator: Norwegian Air Shuttle
    Flights: 13 Block Time: 34.3 Flight Time: 31.9
    Fuel Used: 188251 LB

DATALINK LOG | Newest first | Current as of: 2020-07-11 21:31:29
LABEL ID SEQUENCE CONTENT Dn/Up
QD301013:30 7.5▼ Dn
QC274313:26▼ Dn
GA3947NO GATES AVAILABLE▲ Up
GR4114LGSA --:-- MAAS 00 YP/UM 00/02 WCHR/S/C 01/00/00 HI-VAL NO DIPL/VIP NO▼ Dn
5R4134 ---- ---- -- ----▼ Dn
2U5443LGAV 231120Z 04004KT 320V100 9999 SCT025 19/09 Q1018 NOSIG▲ Up
2U5443LGSA 231120Z 27005KT 9999 FEW020TCU 20/15 Q1017 RMK VATSIM INJECTION▲ Up
2S5443LGSA LGAV▼ Dn
QB114511:10▼ Dn
QA582110:58 21.3▼ Dn
2U4425LOWI 231020Z 02013G27KT 290V100 9999 SCT090 15/02 Q1003 NOSIG RMK VATSIM INJECTION▲ Up
2U4425LGSA 231020Z 32004KT 9999 FEW020 20/15 Q1017 RMK VATSIM INJECTION▲ Up
2S4425LOWI LGSA▼ Dn
A34202CLEARED TO LGSA VIA BREN2J BRENO MOBDO PEVAL NAKIT LOS SAL AIOSA ENOXA XAPAT TIGRA UL995 KRK UA14 ARA UL612 TRL UJ65 SOKRI SOKR1Q. SQUAWK 2010.▲ Up
B34302LOWI LGSA A ▼ Dn
Q04248[LINK TEST]▼ Dn
Q04051[LINK ACK]▲ Up


AIRCRAFT HISTORY
FLIGHT DATE FLIGHT NUMBER ORIGIN DESTINATION ROUTE BLOCK TIME FLIGHT TIME FUEL USED (LB) PILOT
2020-06-25NAX402ENGM ENAL ENGM GM442 GM616 GM619 GM717 EVTOG OSVIG XISCO OBITI ENAL0.90.74423Robin Oeverby
2020-06-21NAX1977LYBE ENGM LYBE TISAK TONDO BEGLA LOKVU LEMBI HDO BUSIR KOBUS EBASA LUROS OBANI IDOBA TUVAK GERGA RENKI RAKIT RODEP UDAXI MASOR LABES KOGIM ARGAD SALLO TOPLA XENTA REGMA LUNIP ENGM2.72.414994Robin Oeverby
2020-06-14NAX4341ESSA LYBE ESSA TRS NUGPU INGIS ARMOD TESPO PENOR MOTAD DOMAG VAPOS KARTI IRLUN GRUDA BIBKA NASOK PENEX ADOXO EVEPU POLON EVGUR BABKO LITKU PARAK TISAK LYBE2.32.213151Robin Oeverby
2020-06-12NAX4072ESGG ESSA ESGG LABAN DETSO PELIT TORVA ARS ELTOK ESSA10.74969Robin Oeverby
2020-06-11NAX4266LEAL ESGG LEAL MITOS ARGOR EBROX LATRO OLOXO OKABI TOU FISTO PERIG FOUCO ADABI BOKNO DEVRO VANAD VADOM BAMES ARSAF KOPOR MTD NURMO PERON SULEX CMB VEKIN ADUTO FERDI HELEN TOLEN STD EKROS SPY BETUS ANDIK KEKIX GRONY BEDUM LABIL JUIST NIRDU CORIS WELGO LEGPI TUSKA INSUS MIKRO BAVTA GIKIV INTET RADIS GOTEX LOBBI ESGG3.33.118625Robin Oeverby
2020-06-11NAX5345ENTC LEAL ENTC AMIMO GUBAV TUXOT SOMUB VEXOM TUTBI BELGU GIMEX RIPAM ULMUG PIPEX AMSEV PEVOR BAVTA MIKRO INSUS TUSKA LEGPI WELGO CORIS NIRDU JUIST TEMLU EEL LILSI PAM LEKKO LARAS KUDAD WOODY NIK DENOX CIV MEDIL PITHI LESDO KOVIN DUCRA RESMI DEKOD DISAK DEPOM DIRMO GUERE ETENU EVPOK MAKOX AGN ANETO TURUV GRAUS LOBAR SEROX CASPE MLA CRETA RIMES SAURA TATOS PLANA VLC LEAL54.827489Robin Oeverby
2020-06-10NAX328ENGM ENTC ENGM RIBBE GIGNI SOMUB TUXOT GUBAV AMIMO ENTC1.71.59596Robin Oeverby
2020-06-10NAX949EKCH ENGM EKCH VEDAR LASLI RISMA GIXUN SABAK XENTA REGMA LUNIP ENGM10.85826Robin Oeverby
2020-06-06NAX3615LPMA EKCH LPMA SNT LIDRO VABEM PINEK LOTEE NOVAN ERIGA MOKOR OLEBA BAKUL ARDOD OBATO RONAX SORAP DITAL EVX PODEM BAZOS SOMIL BELDI VEKIN ADUTO FERDI HELEN TOLEN DOSUR TALSA TUDLO EKCH4.3424034Robin Oeverby
2020-03-07NAX260LGSA LPMA 5.65.431323Chris Makris
2019-11-23NAX260LOWI LGSA 2.52.313794Chris Makris
2019-11-18NAX260ENGM LOWI 2.62.313667Chris Makris
2019-11-13NAX8187ESSA ENGM 1.10.86361Matthew Gales